sensor_id;sensor_type;location;lat;lon;timestamp;temperature;humidity
610;DHT22;292;48.800;9.216;2023-01-04T00:00:42;6.40;81.20
610;DHT22;292;48.800;9.216;2023-01-04T00:03:11;6.30;81.20
610;DHT22;292;48.800;9.216;2023-01-04T00:05:39;6.30;81.40
610;DHT22;292;48.800;9.216;2023-01-04T00:08:06;6.30;81.30
610;DHT22;292;48.800;9.216;2023-01-04T00:10:34;6.40;81.30
610;DHT22;292;48.800;9.216;2023-01-04T00:13:01;6.40;81.20
610;DHT22;292;48.800;9.216;2023-01-04T00:15:28;6.50;81.00
610;DHT22;292;48.800;9.216;2023-01-04T00:17:55;6.40;80.90
610;DHT22;292;48.800;9.216;2023-01-04T00:20:22;6.40;80.90
610;DHT22;292;48.800;9.216;2023-01-04T00:22:51;6.40;81.00
610;DHT22;292;48.800;9.216;2023-01-04T00:25:18;6.40;80.90
610;DHT22;292;48.800;9.216;2023-01-04T00:27:45;6.40;80.90
610;DHT22;292;48.800;9.216;2023-01-04T00:30:12;6.30;81.00
610;DHT22;292;48.800;9.216;2023-01-04T00:32:39;6.30;81.20
610;DHT22;292;48.800;9.216;2023-01-04T00:35:07;6.30;81.20
610;DHT22;292;48.800;9.216;2023-01-04T00:37:34;6.30;81.20
610;DHT22;292;48.800;9.216;2023-01-04T00:40:03;6.40;81.00
610;DHT22;292;48.800;9.216;2023-01-04T00:42:30;6.30;81.30
610;DHT22;292;48.800;9.216;2023-01-04T00:44:57;6.30;81.20
610;DHT22;292;48.800;9.216;2023-01-04T00:47:24;6.20;81.30
610;DHT22;292;48.800;9.216;2023-01-04T00:49:51;6.10;81.90
610;DHT22;292;48.800;9.216;2023-01-04T00:52:18;6.00;82.00
610;DHT22;292;48.800;9.216;2023-01-04T00:54:45;6.00;82.00
610;DHT22;292;48.800;9.216;2023-01-04T00:57:14;6.00;81.90
610;DHT22;292;48.800;9.216;2023-01-04T00:59:41;6.00;81.70
610;DHT22;292;48.800;9.216;2023-01-04T01:02:07;6.10;81.90
610;DHT22;292;48.800;9.216;2023-01-04T01:04:34;6.10;81.90
610;DHT22;292;48.800;9.216;2023-01-04T01:07:02;6.10;81.70
610;DHT22;292;48.800;9.216;2023-01-04T01:09:29;6.10;81.70
610;DHT22;292;48.800;9.216;2023-01-04T01:11:56;6.10;81.60
610;DHT22;292;48.800;9.216;2023-01-04T01:14:25;6.10;81.60
610;DHT22;292;48.800;9.216;2023-01-04T01:16:52;6.20;81.60
610;DHT22;292;48.800;9.216;2023-01-04T01:19:19;6.20;81.30
610;DHT22;292;48.800;9.216;2023-01-04T01:21:47;6.20;81.20
610;DHT22;292;48.800;9.216;2023-01-04T01:24:15;6.20;81.20
610;DHT22;292;48.800;9.216;2023-01-04T01:26:42;6.20;81.00
610;DHT22;292;48.800;9.216;2023-01-04T01:29:09;6.20;81.00
610;DHT22;292;48.800;9.216;2023-01-04T01:31:39;6.20;80.90
610;DHT22;292;48.800;9.216;2023-01-04T01:34:06;6.30;80.70
610;DHT22;292;48.800;9.216;2023-01-04T01:36:33;6.30;80.70
610;DHT22;292;48.800;9.216;2023-01-04T01:39:00;6.30;80.40
610;DHT22;292;48.800;9.216;2023-01-04T01:41:29;6.30;80.40
610;DHT22;292;48.800;9.216;2023-01-04T01:43:58;6.40;80.40
610;DHT22;292;48.800;9.216;2023-01-04T01:46:28;6.40;80.10
610;DHT22;292;48.800;9.216;2023-01-04T01:49:03;6.40;80.00
610;DHT22;292;48.800;9.216;2023-01-04T01:51:32;6.40;80.00
610;DHT22;292;48.800;9.216;2023-01-04T01:54:03;6.40;79.70
610;DHT22;292;48.800;9.216;2023-01-04T01:56:33;6.30;79.70
610;DHT22;292;48.800;9.216;2023-01-04T01:59:02;6.30;80.00
610;DHT22;292;48.800;9.216;2023-01-04T02:01:29;6.30;80.00
610;DHT22;292;48.800;9.216;2023-01-04T02:03:58;6.30;79.90
610;DHT22;292;48.800;9.216;2023-01-04T02:06:30;6.20;80.00
610;DHT22;292;48.800;9.216;2023-01-04T02:08:57;6.20;80.00
610;DHT22;292;48.800;9.216;2023-01-04T02:11:25;6.30;80.00
610;DHT22;292;48.800;9.216;2023-01-04T02:13:53;6.30;80.00
610;DHT22;292;48.800;9.216;2023-01-04T02:16:46;6.30;79.70
610;DHT22;292;48.800;9.216;2023-01-04T02:19:33;6.30;79.90
610;DHT22;292;48.800;9.216;2023-01-04T02:22:24;6.30;80.00
610;DHT22;292;48.800;9.216;2023-01-04T02:25:15;6.30;79.70
610;DHT22;292;48.800;9.216;2023-01-04T02:27:48;6.30;79.70
610;DHT22;292;48.800;9.216;2023-01-04T02:30:37;6.30;79.70
610;DHT22;292;48.800;9.216;2023-01-04T02:33:18;6.30;79.60
610;DHT22;292;48.800;9.216;2023-01-04T02:35:57;6.30;79.70
610;DHT22;292;48.800;9.216;2023-01-04T02:38:30;6.30;79.30
610;DHT22;292;48.800;9.216;2023-01-04T02:41:03;6.20;79.60
610;DHT22;292;48.800;9.216;2023-01-04T02:43:35;6.20;79.60
610;DHT22;292;48.800;9.216;2023-01-04T02:46:26;6.20;79.40
610;DHT22;292;48.800;9.216;2023-01-04T02:49:00;6.10;79.60
610;DHT22;292;48.800;9.216;2023-01-04T02:51:45;6.00;79.90
610;DHT22;292;48.800;9.216;2023-01-04T02:54:14;6.00;80.00
610;DHT22;292;48.800;9.216;2023-01-04T02:56:56;6.10;80.00
610;DHT22;292;48.800;9.216;2023-01-04T02:59:43;6.10;80.00
610;DHT22;292;48.800;9.216;2023-01-04T03:02:28;6.10;79.90
610;DHT22;292;48.800;9.216;2023-01-04T03:05:23;6.10;79.90
610;DHT22;292;48.800;9.216;2023-01-04T03:08:13;6.10;79.70
610;DHT22;292;48.800;9.216;2023-01-04T03:10:47;6.00;79.60
610;DHT22;292;48.800;9.216;2023-01-04T03:13:17;6.00;79.70
610;DHT22;292;48.800;9.216;2023-01-04T03:15:47;6.00;79.60
610;DHT22;292;48.800;9.216;2023-01-04T03:18:20;6.00;79.90
610;DHT22;292;48.800;9.216;2023-01-04T03:20:50;6.00;79.90
610;DHT22;292;48.800;9.216;2023-01-04T03:23:21;6.00;79.90
610;DHT22;292;48.800;9.216;2023-01-04T03:26:10;6.00;79.90
610;DHT22;292;48.800;9.216;2023-01-04T03:29:02;6.00;79.90
610;DHT22;292;48.800;9.216;2023-01-04T03:31:50;6.00;79.70
610;DHT22;292;48.800;9.216;2023-01-04T03:34:35;6.00;79.70
610;DHT22;292;48.800;9.216;2023-01-04T03:37:23;6.00;79.90
610;DHT22;292;48.800;9.216;2023-01-04T03:40:02;6.00;79.70
610;DHT22;292;48.800;9.216;2023-01-04T03:42:57;6.00;79.70
610;DHT22;292;48.800;9.216;2023-01-04T03:45:47;5.90;80.10
610;DHT22;292;48.800;9.216;2023-01-04T03:48:36;5.80;80.30
610;DHT22;292;48.800;9.216;2023-01-04T03:51:10;5.80;80.30
610;DHT22;292;48.800;9.216;2023-01-04T03:53:50;5.80;80.40
610;DHT22;292;48.800;9.216;2023-01-04T03:56:21;5.90;80.40
610;DHT22;292;48.800;9.216;2023-01-04T03:58:49;5.90;80.30
610;DHT22;292;48.800;9.216;2023-01-04T04:01:17;5.80;80.40
610;DHT22;292;48.800;9.216;2023-01-04T04:03:45;5.90;80.40
610;DHT22;292;48.800;9.216;2023-01-04T04:06:29;5.80;80.40
610;DHT22;292;48.800;9.216;2023-01-04T04:09:15;5.80;80.40
610;DHT22;292;48.800;9.216;2023-01-04T04:11:42;5.70;80.60
610;DHT22;292;48.800;9.216;2023-01-04T04:14:09;5.70;80.90
610;DHT22;292;48.800;9.216;2023-01-04T04:16:37;5.80;80.70
610;DHT22;292;48.800;9.216;2023-01-04T04:19:04;5.80;80.60
610;DHT22;292;48.800;9.216;2023-01-04T04:21:31;5.70;80.70
610;DHT22;292;48.800;9.216;2023-01-04T04:23:58;5.70;80.90
610;DHT22;292;48.800;9.216;2023-01-04T04:26:26;5.60;80.70
610;DHT22;292;48.800;9.216;2023-01-04T04:28:53;5.60;80.90
610;DHT22;292;48.800;9.216;2023-01-04T04:31:20;5.50;81.00
610;DHT22;292;48.800;9.216;2023-01-04T04:33:47;5.50;81.00
610;DHT22;292;48.800;9.216;2023-01-04T04:36:14;5.50;81.20
610;DHT22;292;48.800;9.216;2023-01-04T04:38:41;5.50;81.30
610;DHT22;292;48.800;9.216;2023-01-04T04:41:09;5.50;81.20
610;DHT22;292;48.800;9.216;2023-01-04T04:43:57;5.50;81.30
610;DHT22;292;48.800;9.216;2023-01-04T04:46:24;5.50;81.30
610;DHT22;292;48.800;9.216;2023-01-04T04:48:51;5.40;81.60
610;DHT22;292;48.800;9.216;2023-01-04T04:51:18;5.40;81.70
610;DHT22;292;48.800;9.216;2023-01-04T04:53:45;5.40;81.70
610;DHT22;292;48.800;9.216;2023-01-04T04:56:12;5.40;81.90
610;DHT22;292;48.800;9.216;2023-01-04T04:58:39;5.40;81.90
610;DHT22;292;48.800;9.216;2023-01-04T05:01:07;5.40;82.00
610;DHT22;292;48.800;9.216;2023-01-04T05:03:35;5.40;82.00
610;DHT22;292;48.800;9.216;2023-01-04T05:06:02;5.30;82.00
610;DHT22;292;48.800;9.216;2023-01-04T05:08:29;5.30;82.20
610;DHT22;292;48.800;9.216;2023-01-04T05:10:58;5.30;82.40
610;DHT22;292;48.800;9.216;2023-01-04T05:13:26;5.30;82.50
610;DHT22;292;48.800;9.216;2023-01-04T05:15:52;5.40;82.60
610;DHT22;292;48.800;9.216;2023-01-04T05:18:21;5.40;82.90
610;DHT22;292;48.800;9.216;2023-01-04T05:20:49;5.40;82.90
610;DHT22;292;48.800;9.216;2023-01-04T05:23:18;5.50;82.50
610;DHT22;292;48.800;9.216;2023-01-04T05:25:47;5.50;82.60
610;DHT22;292;48.800;9.216;2023-01-04T05:28:16;5.60;82.60
610;DHT22;292;48.800;9.216;2023-01-04T05:30:43;5.70;82.60
610;DHT22;292;48.800;9.216;2023-01-04T05:33:15;5.70;82.80
610;DHT22;292;48.800;9.216;2023-01-04T05:35:44;5.80;82.50
610;DHT22;292;48.800;9.216;2023-01-04T05:38:11;5.90;82.40
610;DHT22;292;48.800;9.216;2023-01-04T05:40:38;6.00;82.20
610;DHT22;292;48.800;9.216;2023-01-04T05:43:05;6.10;82.10
610;DHT22;292;48.800;9.216;2023-01-04T05:45:32;6.10;82.00
610;DHT22;292;48.800;9.216;2023-01-04T05:48:00;6.20;82.00
610;DHT22;292;48.800;9.216;2023-01-04T05:50:27;6.30;81.90
610;DHT22;292;48.800;9.216;2023-01-04T05:52:55;6.30;81.60
610;DHT22;292;48.800;9.216;2023-01-04T05:55:22;6.30;81.60
610;DHT22;292;48.800;9.216;2023-01-04T05:57:51;6.40;81.30
610;DHT22;292;48.800;9.216;2023-01-04T06:00:19;6.40;81.20
610;DHT22;292;48.800;9.216;2023-01-04T06:02:45;6.40;81.20
610;DHT22;292;48.800;9.216;2023-01-04T06:05:13;6.50;81.30
610;DHT22;292;48.800;9.216;2023-01-04T06:07:40;6.50;81.20
610;DHT22;292;48.800;9.216;2023-01-04T06:10:11;6.50;81.00
610;DHT22;292;48.800;9.216;2023-01-04T06:12:38;6.50;81.00
610;DHT22;292;48.800;9.216;2023-01-04T06:15:07;6.60;81.00
610;DHT22;292;48.800;9.216;2023-01-04T06:17:35;6.60;80.70
610;DHT22;292;48.800;9.216;2023-01-04T06:20:04;6.70;80.90
610;DHT22;292;48.800;9.216;2023-01-04T06:22:32;6.60;80.10
610;DHT22;292;48.800;9.216;2023-01-04T06:24:59;6.60;80.30
610;DHT22;292;48.800;9.216;2023-01-04T06:27:27;6.50;80.30
610;DHT22;292;48.800;9.216;2023-01-04T06:29:54;6.40;80.60
610;DHT22;292;48.800;9.216;2023-01-04T06:32:21;6.40;80.70
610;DHT22;292;48.800;9.216;2023-01-04T06:34:48;6.40;80.70
610;DHT22;292;48.800;9.216;2023-01-04T06:37:15;6.50;80.70
610;DHT22;292;48.800;9.216;2023-01-04T06:39:42;6.40;80.60
610;DHT22;292;48.800;9.216;2023-01-04T06:42:09;6.40;80.60
610;DHT22;292;48.800;9.216;2023-01-04T06:44:58;6.40;80.60
610;DHT22;292;48.800;9.216;2023-01-04T06:47:25;6.40;80.60
610;DHT22;292;48.800;9.216;2023-01-04T06:49:53;6.40;80.60
610;DHT22;292;48.800;9.216;2023-01-04T06:52:20;6.50;80.70
610;DHT22;292;48.800;9.216;2023-01-04T06:54:47;6.50;80.70
610;DHT22;292;48.800;9.216;2023-01-04T06:57:14;6.50;80.70
610;DHT22;292;48.800;9.216;2023-01-04T06:59:41;6.50;80.90
610;DHT22;292;48.800;9.216;2023-01-04T07:02:12;6.60;80.90
610;DHT22;292;48.800;9.216;2023-01-04T07:04:41;6.60;80.60
610;DHT22;292;48.800;9.216;2023-01-04T07:07:08;6.60;80.60
610;DHT22;292;48.800;9.216;2023-01-04T07:09:36;6.60;80.70
610;DHT22;292;48.800;9.216;2023-01-04T07:12:04;6.60;80.60
610;DHT22;292;48.800;9.216;2023-01-04T07:14:31;6.70;80.70
610;DHT22;292;48.800;9.216;2023-01-04T07:16:58;6.60;80.60
610;DHT22;292;48.800;9.216;2023-01-04T07:19:26;6.70;80.70
610;DHT22;292;48.800;9.216;2023-01-04T07:21:53;6.70;80.60
610;DHT22;292;48.800;9.216;2023-01-04T07:24:20;6.60;80.90
610;DHT22;292;48.800;9.216;2023-01-04T07:26:47;6.70;80.90
610;DHT22;292;48.800;9.216;2023-01-04T07:29:14;6.70;80.90
610;DHT22;292;48.800;9.216;2023-01-04T07:31:43;6.70;80.70
610;DHT22;292;48.800;9.216;2023-01-04T07:34:10;6.70;80.70
610;DHT22;292;48.800;9.216;2023-01-04T07:36:39;6.70;80.70
610;DHT22;292;48.800;9.216;2023-01-04T07:39:06;6.70;80.70
610;DHT22;292;48.800;9.216;2023-01-04T07:41:35;6.80;80.70
610;DHT22;292;48.800;9.216;2023-01-04T07:44:02;6.80;80.60
610;DHT22;292;48.800;9.216;2023-01-04T07:46:31;6.80;80.40
610;DHT22;292;48.800;9.216;2023-01-04T07:48:58;6.70;81.00
610;DHT22;292;48.800;9.216;2023-01-04T07:51:28;6.80;81.00
610;DHT22;292;48.800;9.216;2023-01-04T07:53:56;6.80;81.20
610;DHT22;292;48.800;9.216;2023-01-04T07:56:24;6.70;81.40
610;DHT22;292;48.800;9.216;2023-01-04T07:58:50;6.70;81.60
610;DHT22;292;48.800;9.216;2023-01-04T08:01:21;6.80;81.70
610;DHT22;292;48.800;9.216;2023-01-04T08:03:49;6.80;81.90
610;DHT22;292;48.800;9.216;2023-01-04T08:06:17;6.70;82.00
610;DHT22;292;48.800;9.216;2023-01-04T08:08:44;6.70;82.20
610;DHT22;292;48.800;9.216;2023-01-04T08:11:14;6.70;82.50
610;DHT22;292;48.800;9.216;2023-01-04T08:13:42;6.80;82.50
610;DHT22;292;48.800;9.216;2023-01-04T08:16:18;6.80;82.80
610;DHT22;292;48.800;9.216;2023-01-04T08:18:45;6.90;82.90
610;DHT22;292;48.800;9.216;2023-01-04T08:21:12;6.90;83.20
610;DHT22;292;48.800;9.216;2023-01-04T08:23:39;6.90;83.20
610;DHT22;292;48.800;9.216;2023-01-04T08:26:07;6.90;83.10
610;DHT22;292;48.800;9.216;2023-01-04T08:28:36;7.00;83.20
610;DHT22;292;48.800;9.216;2023-01-04T08:31:05;7.00;83.20
610;DHT22;292;48.800;9.216;2023-01-04T08:33:34;7.00;83.40
610;DHT22;292;48.800;9.216;2023-01-04T08:36:08;7.00;83.40
610;DHT22;292;48.800;9.216;2023-01-04T08:38:35;7.10;83.40
610;DHT22;292;48.800;9.216;2023-01-04T08:41:03;7.10;83.50
610;DHT22;292;48.800;9.216;2023-01-04T08:43:30;7.10;83.60
610;DHT22;292;48.800;9.216;2023-01-04T08:45:58;7.10;83.90
610;DHT22;292;48.800;9.216;2023-01-04T08:48:25;7.10;83.90
610;DHT22;292;48.800;9.216;2023-01-04T08:50:52;7.20;83.80
610;DHT22;292;48.800;9.216;2023-01-04T08:53:19;7.20;83.50
610;DHT22;292;48.800;9.216;2023-01-04T08:55:50;7.20;83.60
610;DHT22;292;48.800;9.216;2023-01-04T08:58:18;7.20;83.80
610;DHT22;292;48.800;9.216;2023-01-04T09:00:48;7.30;83.60
610;DHT22;292;48.800;9.216;2023-01-04T09:03:17;7.30;83.60
610;DHT22;292;48.800;9.216;2023-01-04T09:05:46;7.30;83.60
610;DHT22;292;48.800;9.216;2023-01-04T09:08:13;7.40;83.60
610;DHT22;292;48.800;9.216;2023-01-04T09:10:40;7.40;83.80
610;DHT22;292;48.800;9.216;2023-01-04T09:13:07;7.50;83.80
610;DHT22;292;48.800;9.216;2023-01-04T09:15:34;7.60;83.80
610;DHT22;292;48.800;9.216;2023-01-04T09:18:02;7.70;83.50
610;DHT22;292;48.800;9.216;2023-01-04T09:20:31;7.80;83.10
610;DHT22;292;48.800;9.216;2023-01-04T09:22:59;7.90;83.10
610;DHT22;292;48.800;9.216;2023-01-04T09:25:26;8.00;82.50
610;DHT22;292;48.800;9.216;2023-01-04T09:27:53;8.10;81.90
610;DHT22;292;48.800;9.216;2023-01-04T09:30:20;8.20;81.30
610;DHT22;292;48.800;9.216;2023-01-04T09:32:47;8.30;80.70
610;DHT22;292;48.800;9.216;2023-01-04T09:35:15;8.40;79.90
610;DHT22;292;48.800;9.216;2023-01-04T09:37:43;8.50;79.40
610;DHT22;292;48.800;9.216;2023-01-04T09:40:18;8.60;79.00
610;DHT22;292;48.800;9.216;2023-01-04T09:42:46;8.80;78.40
610;DHT22;292;48.800;9.216;2023-01-04T09:45:17;8.90;77.40
610;DHT22;292;48.800;9.216;2023-01-04T09:47:48;9.00;76.70
610;DHT22;292;48.800;9.216;2023-01-04T09:50:20;9.10;76.10
610;DHT22;292;48.800;9.216;2023-01-04T09:52:56;9.20;75.70
610;DHT22;292;48.800;9.216;2023-01-04T09:55:28;9.30;75.10
610;DHT22;292;48.800;9.216;2023-01-04T09:57:59;9.40;73.90
610;DHT22;292;48.800;9.216;2023-01-04T10:00:30;9.40;73.40
610;DHT22;292;48.800;9.216;2023-01-04T10:03:04;9.50;73.10
610;DHT22;292;48.800;9.216;2023-01-04T10:05:33;9.60;72.80
610;DHT22;292;48.800;9.216;2023-01-04T10:08:02;9.70;72.40
610;DHT22;292;48.800;9.216;2023-01-04T10:10:46;9.80;72.10
610;DHT22;292;48.800;9.216;2023-01-04T10:13:25;9.80;71.30
610;DHT22;292;48.800;9.216;2023-01-04T10:16:03;9.90;71.20
610;DHT22;292;48.800;9.216;2023-01-04T10:18:40;10.00;71.20
610;DHT22;292;48.800;9.216;2023-01-04T10:21:27;10.00;70.90
610;DHT22;292;48.800;9.216;2023-01-04T10:24:28;10.10;70.90
610;DHT22;292;48.800;9.216;2023-01-04T10:27:03;10.10;70.50
610;DHT22;292;48.800;9.216;2023-01-04T10:29:46;10.10;69.90
610;DHT22;292;48.800;9.216;2023-01-04T10:32:23;10.10;69.80
610;DHT22;292;48.800;9.216;2023-01-04T10:34:54;10.20;69.50
610;DHT22;292;48.800;9.216;2023-01-04T10:37:23;10.20;69.80
610;DHT22;292;48.800;9.216;2023-01-04T10:39:54;10.20;69.60
610;DHT22;292;48.800;9.216;2023-01-04T10:42:31;10.30;69.60
610;DHT22;292;48.800;9.216;2023-01-04T10:45:10;10.30;69.60
610;DHT22;292;48.800;9.216;2023-01-04T10:47:48;10.30;69.20
610;DHT22;292;48.800;9.216;2023-01-04T10:50:23;10.40;69.20
610;DHT22;292;48.800;9.216;2023-01-04T10:52:54;10.40;69.00
610;DHT22;292;48.800;9.216;2023-01-04T10:55:28;10.50;68.90
610;DHT22;292;48.800;9.216;2023-01-04T10:58:01;10.50;68.70
610;DHT22;292;48.800;9.216;2023-01-04T11:00:31;10.60;68.60
610;DHT22;292;48.800;9.216;2023-01-04T11:03:03;10.60;68.50
610;DHT22;292;48.800;9.216;2023-01-04T11:05:37;10.60;68.30
610;DHT22;292;48.800;9.216;2023-01-04T11:08:10;10.70;68.20
610;DHT22;292;48.800;9.216;2023-01-04T11:10:42;10.70;68.20
610;DHT22;292;48.800;9.216;2023-01-04T11:13:11;10.70;67.90
610;DHT22;292;48.800;9.216;2023-01-04T11:15:38;10.80;67.90
610;DHT22;292;48.800;9.216;2023-01-04T11:18:08;10.80;67.60
610;DHT22;292;48.800;9.216;2023-01-04T11:20:38;10.80;67.50
610;DHT22;292;48.800;9.216;2023-01-04T11:23:09;10.90;67.60
610;DHT22;292;48.800;9.216;2023-01-04T11:25:42;10.90;67.30
610;DHT22;292;48.800;9.216;2023-01-04T11:28:15;11.00;67.20
610;DHT22;292;48.800;9.216;2023-01-04T11:30:55;10.90;66.90
610;DHT22;292;48.800;9.216;2023-01-04T11:33:24;11.00;67.20
610;DHT22;292;48.800;9.216;2023-01-04T11:35:52;11.00;67.20
610;DHT22;292;48.800;9.216;2023-01-04T11:38:22;11.00;67.30
610;DHT22;292;48.800;9.216;2023-01-04T11:40:59;11.10;67.00
610;DHT22;292;48.800;9.216;2023-01-04T11:43:28;11.10;66.90
610;DHT22;292;48.800;9.216;2023-01-04T11:45:58;11.10;66.40
610;DHT22;292;48.800;9.216;2023-01-04T11:48:38;11.20;66.40
610;DHT22;292;48.800;9.216;2023-01-04T11:51:16;11.20;66.40
610;DHT22;292;48.800;9.216;2023-01-04T11:53:44;11.20;66.20
610;DHT22;292;48.800;9.216;2023-01-04T11:56:17;11.20;66.30
610;DHT22;292;48.800;9.216;2023-01-04T12:01:26;11.30;66.30
610;DHT22;292;48.800;9.216;2023-01-04T12:03:54;11.30;66.20
610;DHT22;292;48.800;9.216;2023-01-04T12:06:26;11.40;66.00
610;DHT22;292;48.800;9.216;2023-01-04T12:08:59;11.40;66.20
610;DHT22;292;48.800;9.216;2023-01-04T12:11:30;11.40;66.20
610;DHT22;292;48.800;9.216;2023-01-04T12:13:58;11.40;66.30
610;DHT22;292;48.800;9.216;2023-01-04T12:16:39;11.40;66.20
610;DHT22;292;48.800;9.216;2023-01-04T12:19:13;11.40;66.40
610;DHT22;292;48.800;9.216;2023-01-04T12:21:43;11.40;66.60
610;DHT22;292;48.800;9.216;2023-01-04T12:24:16;11.50;66.60
610;DHT22;292;48.800;9.216;2023-01-04T12:26:46;11.50;66.60
610;DHT22;292;48.800;9.216;2023-01-04T12:29:43;11.50;66.70
610;DHT22;292;48.800;9.216;2023-01-04T12:32:39;11.60;66.90
610;DHT22;292;48.800;9.216;2023-01-04T12:39:04;11.60;67.00
610;DHT22;292;48.800;9.216;2023-01-04T12:42:11;11.60;67.20
610;DHT22;292;48.800;9.216;2023-01-04T12:44:59;11.70;67.00
610;DHT22;292;48.800;9.216;2023-01-04T12:47:43;11.70;67.50
610;DHT22;292;48.800;9.216;2023-01-04T12:50:28;11.80;67.50
610;DHT22;292;48.800;9.216;2023-01-04T12:52:58;11.80;67.30
610;DHT22;292;48.800;9.216;2023-01-04T12:55:50;11.80;67.50
610;DHT22;292;48.800;9.216;2023-01-04T13:01:26;11.90;67.50
610;DHT22;292;48.800;9.216;2023-01-04T13:03:56;11.90;67.60
610;DHT22;292;48.800;9.216;2023-01-04T13:06:26;11.90;67.60
610;DHT22;292;48.800;9.216;2023-01-04T13:08:56;12.00;67.60
610;DHT22;292;48.800;9.216;2023-01-04T13:14:29;12.00;67.70
610;DHT22;292;48.800;9.216;2023-01-04T13:17:13;12.00;67.60
610;DHT22;292;48.800;9.216;2023-01-04T13:19:42;12.10;67.60
610;DHT22;292;48.800;9.216;2023-01-04T13:22:16;12.10;67.60
610;DHT22;292;48.800;9.216;2023-01-04T13:24:44;12.20;67.60
610;DHT22;292;48.800;9.216;2023-01-04T13:27:15;12.20;67.60
610;DHT22;292;48.800;9.216;2023-01-04T13:29:44;12.20;67.50
610;DHT22;292;48.800;9.216;2023-01-04T13:32:17;12.30;67.30
610;DHT22;292;48.800;9.216;2023-01-04T13:34:51;12.30;67.30
610;DHT22;292;48.800;9.216;2023-01-04T13:37:28;12.30;67.30
610;DHT22;292;48.800;9.216;2023-01-04T13:40:03;12.40;67.30
610;DHT22;292;48.800;9.216;2023-01-04T13:42:35;12.40;67.20
610;DHT22;292;48.800;9.216;2023-01-04T13:45:25;12.50;67.20
610;DHT22;292;48.800;9.216;2023-01-04T13:47:58;12.50;67.20
610;DHT22;292;48.800;9.216;2023-01-04T13:50:31;12.50;67.20
610;DHT22;292;48.800;9.216;2023-01-04T13:52:58;12.50;66.70
610;DHT22;292;48.800;9.216;2023-01-04T13:55:27;12.50;67.00
610;DHT22;292;48.800;9.216;2023-01-04T13:57:55;12.60;66.70
610;DHT22;292;48.800;9.216;2023-01-04T14:00:23;12.50;66.60
610;DHT22;292;48.800;9.216;2023-01-04T14:03:06;12.50;66.60
610;DHT22;292;48.800;9.216;2023-01-04T14:05:44;12.50;66.40
610;DHT22;292;48.800;9.216;2023-01-04T14:08:13;12.50;66.70
610;DHT22;292;48.800;9.216;2023-01-04T14:10:44;12.50;66.70
610;DHT22;292;48.800;9.216;2023-01-04T14:13:14;12.60;66.60
610;DHT22;292;48.800;9.216;2023-01-04T14:15:43;12.60;66.70
610;DHT22;292;48.800;9.216;2023-01-04T14:18:26;12.60;66.30
610;DHT22;292;48.800;9.216;2023-01-04T14:20:53;12.60;66.40
610;DHT22;292;48.800;9.216;2023-01-04T14:23:31;12.60;66.60
610;DHT22;292;48.800;9.216;2023-01-04T14:25:59;12.60;66.40
610;DHT22;292;48.800;9.216;2023-01-04T14:28:30;12.60;66.30
610;DHT22;292;48.800;9.216;2023-01-04T14:31:21;12.60;66.30
610;DHT22;292;48.800;9.216;2023-01-04T14:33:53;12.60;66.40
610;DHT22;292;48.800;9.216;2023-01-04T14:36:21;12.60;66.30
610;DHT22;292;48.800;9.216;2023-01-04T14:39:08;12.60;66.30
610;DHT22;292;48.800;9.216;2023-01-04T14:41:37;12.60;66.60
610;DHT22;292;48.800;9.216;2023-01-04T14:44:09;12.60;66.40
610;DHT22;292;48.800;9.216;2023-01-04T14:46:37;12.60;66.60
610;DHT22;292;48.800;9.216;2023-01-04T14:49:07;12.60;66.70
610;DHT22;292;48.800;9.216;2023-01-04T14:51:37;12.60;66.60
610;DHT22;292;48.800;9.216;2023-01-04T14:54:08;12.60;66.70
610;DHT22;292;48.800;9.216;2023-01-04T14:56:35;12.60;66.60
610;DHT22;292;48.800;9.216;2023-01-04T14:59:02;12.60;66.60
610;DHT22;292;48.800;9.216;2023-01-04T15:01:30;12.60;66.70
610;DHT22;292;48.800;9.216;2023-01-04T15:03:57;12.50;66.70
610;DHT22;292;48.800;9.216;2023-01-04T15:06:25;12.60;66.70
610;DHT22;292;48.800;9.216;2023-01-04T15:08:52;12.60;66.70
610;DHT22;292;48.800;9.216;2023-01-04T15:11:19;12.60;66.70
610;DHT22;292;48.800;9.216;2023-01-04T15:13:46;12.60;66.90
610;DHT22;292;48.800;9.216;2023-01-04T15:16:15;12.60;66.90
610;DHT22;292;48.800;9.216;2023-01-04T15:18:43;12.60;66.90
610;DHT22;292;48.800;9.216;2023-01-04T15:21:11;12.60;67.00
610;DHT22;292;48.800;9.216;2023-01-04T15:23:39;12.60;67.00
610;DHT22;292;48.800;9.216;2023-01-04T15:26:08;12.60;67.20
610;DHT22;292;48.800;9.216;2023-01-04T15:28:36;12.60;67.20
610;DHT22;292;48.800;9.216;2023-01-04T15:31:07;12.60;67.20
610;DHT22;292;48.800;9.216;2023-01-04T15:33:35;12.60;67.20
610;DHT22;292;48.800;9.216;2023-01-04T15:36:04;12.60;67.30
610;DHT22;292;48.800;9.216;2023-01-04T15:38:32;12.60;67.30
610;DHT22;292;48.800;9.216;2023-01-04T15:41:02;12.60;67.30
610;DHT22;292;48.800;9.216;2023-01-04T15:43:32;12.60;67.50
610;DHT22;292;48.800;9.216;2023-01-04T15:46:03;12.60;67.50
610;DHT22;292;48.800;9.216;2023-01-04T15:48:31;12.60;67.70
610;DHT22;292;48.800;9.216;2023-01-04T15:51:01;12.60;68.00
610;DHT22;292;48.800;9.216;2023-01-04T15:53:29;12.70;68.00
610;DHT22;292;48.800;9.216;2023-01-04T15:56:05;12.70;67.90
610;DHT22;292;48.800;9.216;2023-01-04T15:58:32;12.70;67.60
610;DHT22;292;48.800;9.216;2023-01-04T16:00:59;12.70;67.50
610;DHT22;292;48.800;9.216;2023-01-04T16:03:26;12.70;67.60
610;DHT22;292;48.800;9.216;2023-01-04T16:05:53;12.70;67.60
610;DHT22;292;48.800;9.216;2023-01-04T16:08:20;12.70;67.60
610;DHT22;292;48.800;9.216;2023-01-04T16:10:47;12.70;67.60
610;DHT22;292;48.800;9.216;2023-01-04T16:13:15;12.70;67.70
610;DHT22;292;48.800;9.216;2023-01-04T16:15:42;12.70;67.70
610;DHT22;292;48.800;9.216;2023-01-04T16:18:09;12.70;67.90
610;DHT22;292;48.800;9.216;2023-01-04T16:20:39;12.70;67.90
610;DHT22;292;48.800;9.216;2023-01-04T16:23:06;12.70;67.90
610;DHT22;292;48.800;9.216;2023-01-04T16:25:33;12.70;67.60
610;DHT22;292;48.800;9.216;2023-01-04T16:28:00;12.70;67.90
610;DHT22;292;48.800;9.216;2023-01-04T16:30:32;12.70;68.00
610;DHT22;292;48.800;9.216;2023-01-04T16:32:59;12.70;67.90
610;DHT22;292;48.800;9.216;2023-01-04T16:35:26;12.70;67.90
610;DHT22;292;48.800;9.216;2023-01-04T16:37:53;12.80;67.70
610;DHT22;292;48.800;9.216;2023-01-04T16:40:21;12.80;67.70
610;DHT22;292;48.800;9.216;2023-01-04T16:42:49;12.80;67.70
610;DHT22;292;48.800;9.216;2023-01-04T16:45:17;12.80;67.70
610;DHT22;292;48.800;9.216;2023-01-04T16:47:46;12.90;67.70
610;DHT22;292;48.800;9.216;2023-01-04T16:50:14;12.90;67.70
610;DHT22;292;48.800;9.216;2023-01-04T16:52:41;12.90;67.60
610;DHT22;292;48.800;9.216;2023-01-04T16:55:09;12.90;67.60
610;DHT22;292;48.800;9.216;2023-01-04T16:57:36;12.90;67.50
610;DHT22;292;48.800;9.216;2023-01-04T17:00:04;13.00;67.50
610;DHT22;292;48.800;9.216;2023-01-04T17:02:31;13.00;67.50
610;DHT22;292;48.800;9.216;2023-01-04T17:04:59;13.00;67.30
610;DHT22;292;48.800;9.216;2023-01-04T17:07:26;13.10;67.20
610;DHT22;292;48.800;9.216;2023-01-04T17:09:57;13.10;67.20
610;DHT22;292;48.800;9.216;2023-01-04T17:12:25;13.10;67.00
610;DHT22;292;48.800;9.216;2023-01-04T17:14:51;13.10;67.00
610;DHT22;292;48.800;9.216;2023-01-04T17:17:21;13.20;66.60
610;DHT22;292;48.800;9.216;2023-01-04T17:19:48;13.20;66.60
610;DHT22;292;48.800;9.216;2023-01-04T17:22:16;13.20;66.60